createdAt,value
2018-11-01T00:01:58.184Z,7.97
2018-11-01T00:04:26.664Z,8.00
2018-11-01T00:06:55.165Z,8.05
2018-11-01T00:09:23.648Z,8.05
2018-11-01T00:11:52.185Z,8.01
2018-11-01T00:14:20.675Z,8.02
2018-11-01T00:16:49.171Z,8.01
2018-11-01T00:19:17.696Z,8.05
2018-11-01T00:21:46.195Z,8.07
2018-11-01T00:24:14.770Z,8.05
2018-11-01T00:26:43.283Z,7.97
2018-11-01T00:29:12.178Z,8.02
2018-11-01T00:31:40.694Z,8.06
2018-11-01T00:34:09.211Z,8.06
2018-11-01T00:36:37.682Z,8.10
2018-11-01T00:39:09.313Z,8.14
2018-11-01T00:41:38.539Z,8.32
2018-11-01T00:44:07.731Z,8.17
2018-11-01T00:46:36.322Z,8.11
2018-11-01T00:49:04.973Z,8.12
2018-11-01T00:51:33.930Z,8.10
2018-11-01T00:54:02.548Z,8.06
2018-11-01T00:56:31.143Z,8.08
2018-11-01T00:58:59.875Z,8.09
2018-11-01T01:01:28.374Z,8.14
2018-11-01T01:03:58.282Z,8.16
2018-11-01T01:06:26.774Z,8.12
2018-11-01T01:08:56.343Z,8.15
2018-11-01T01:11:24.826Z,8.14
2018-11-01T01:13:53.452Z,8.14
2018-11-01T01:16:21.930Z,8.17
2018-11-01T01:18:50.456Z,8.14
2018-11-01T01:21:18.985Z,8.17
2018-11-01T01:23:47.481Z,8.11
2018-11-01T01:26:16.048Z,8.14
2018-11-01T01:28:44.595Z,8.05
2018-11-01T01:31:13.111Z,8.04
2018-11-01T01:33:48.053Z,8.03
2018-11-01T01:36:16.545Z,8.04
2018-11-01T01:38:45.025Z,8.07
2018-11-01T01:41:13.519Z,8.06
2018-11-01T01:43:42.014Z,8.12
2018-11-01T01:46:10.506Z,8.07
2018-11-01T01:48:39.015Z,7.31
2018-11-01T01:51:07.519Z,8.14
2018-11-01T01:53:36.019Z,8.03
2018-11-01T01:56:04.599Z,7.91
2018-11-01T01:58:33.090Z,7.87
2018-11-01T02:01:01.597Z,7.83
2018-11-01T02:03:30.100Z,7.79
2018-11-01T02:05:58.610Z,7.70
2018-11-01T02:08:27.126Z,7.66
2018-11-01T02:10:55.627Z,7.70
2018-11-01T02:13:24.127Z,7.65
2018-11-01T02:15:52.627Z,7.65
2018-11-01T02:18:21.139Z,7.71
2018-11-01T02:20:49.646Z,7.72
2018-11-01T02:23:18.192Z,7.77
2018-11-01T02:25:46.677Z,7.72
2018-11-01T02:28:16.643Z,7.75
2018-11-01T02:30:45.178Z,7.74
2018-11-01T02:33:14.036Z,7.73
2018-11-01T02:35:42.558Z,7.83
2018-11-01T02:38:11.156Z,7.84
2018-11-01T02:40:39.577Z,7.89
2018-11-01T02:43:08.100Z,7.90
2018-11-01T02:45:36.601Z,7.94
2018-11-01T02:48:05.242Z,7.99
2018-11-01T02:53:26.774Z,7.95
2018-11-01T02:55:55.258Z,7.88
2018-11-01T02:58:23.747Z,7.88
2018-11-01T03:00:52.264Z,7.84
2018-11-01T03:03:20.799Z,7.87
2018-11-01T03:05:49.291Z,7.92
2018-11-01T03:08:17.805Z,7.99
2018-11-01T03:10:46.300Z,8.10
2018-11-01T03:13:14.791Z,8.07
2018-11-01T03:15:43.291Z,7.96
2018-11-01T03:18:11.784Z,7.94
2018-11-01T03:20:40.342Z,7.82
2018-11-01T03:23:08.906Z,7.79
2018-11-01T03:25:37.406Z,7.82
2018-11-01T03:28:06.116Z,7.77
2018-11-01T03:30:34.590Z,7.84
2018-11-01T03:33:03.495Z,7.83
2018-11-01T03:35:32.022Z,7.92
2018-11-01T03:38:00.610Z,7.70
2018-11-01T03:40:29.087Z,7.68
2018-11-01T03:42:57.592Z,7.66
2018-11-01T03:45:26.120Z,7.65
2018-11-01T03:47:54.594Z,7.71
2018-11-01T03:50:23.085Z,7.57
2018-11-01T03:52:51.598Z,7.58
2018-11-01T03:55:20.118Z,7.61
2018-11-01T03:57:48.698Z,7.62
2018-11-01T04:00:17.323Z,7.68
2018-11-01T04:02:47.553Z,7.67
2018-11-01T04:05:16.342Z,7.56
2018-11-01T04:07:44.826Z,7.59
2018-11-01T04:10:13.635Z,7.65
2018-11-01T04:12:42.146Z,7.71
2018-11-01T04:15:13.536Z,7.80
2018-11-01T04:17:42.049Z,7.78
2018-11-01T04:20:11.853Z,7.87
2018-11-01T04:22:40.978Z,7.87
2018-11-01T04:25:09.551Z,7.86
2018-11-01T04:27:38.060Z,7.86
2018-11-01T04:30:07.218Z,7.86
2018-11-01T04:32:35.739Z,7.89
2018-11-01T04:35:04.450Z,7.86
2018-11-01T04:37:32.939Z,7.86
2018-11-01T04:40:01.434Z,7.77
2018-11-01T04:42:29.910Z,7.73
2018-11-01T04:44:58.466Z,7.77
2018-11-01T04:47:27.035Z,7.73
2018-11-01T04:49:55.635Z,7.66
2018-11-01T04:52:24.123Z,7.62
2018-11-01T04:54:52.629Z,7.61
2018-11-01T04:57:21.115Z,7.58
2018-11-01T04:59:51.089Z,7.53
2018-11-01T05:02:19.570Z,7.38
2018-11-01T05:04:48.144Z,7.41
2018-11-01T05:07:16.611Z,7.46
2018-11-01T05:09:45.094Z,7.48
2018-11-01T05:12:13.607Z,7.43
2018-11-01T05:14:42.083Z,7.47
2018-11-01T05:17:10.580Z,7.50
2018-11-01T05:19:39.063Z,7.51
2018-11-01T05:22:07.565Z,7.53
2018-11-01T05:24:36.145Z,7.56
2018-11-01T05:27:04.878Z,7.55
2018-11-01T05:29:33.370Z,7.47
2018-11-01T05:32:02.323Z,7.43
2018-11-01T05:34:30.845Z,7.42
2018-11-01T05:36:59.306Z,7.42
2018-11-01T05:39:27.810Z,7.44
2018-11-01T05:41:56.319Z,7.47
2018-11-01T05:44:24.831Z,7.49
2018-11-01T05:46:53.348Z,7.52
2018-11-01T05:49:21.830Z,7.48
2018-11-01T05:51:50.373Z,7.48
2018-11-01T05:54:18.867Z,7.48
2018-11-01T05:56:47.358Z,7.48
2018-11-01T05:59:15.834Z,7.50
2018-11-01T06:01:50.731Z,7.49
2018-11-01T06:04:19.252Z,7.43
2018-11-01T06:06:47.767Z,7.27
2018-11-01T06:09:21.571Z,7.36
2018-11-01T06:11:50.239Z,7.36
2018-11-01T06:14:19.086Z,7.39
2018-11-01T06:16:47.622Z,7.44
2018-11-01T06:19:16.482Z,7.45
2018-11-01T06:21:44.975Z,7.44
2018-11-01T06:24:13.593Z,7.40
2018-11-01T06:26:42.346Z,7.39
2018-11-01T06:29:10.835Z,7.41
2018-11-01T06:31:39.319Z,7.47
2018-11-01T06:34:10.559Z,7.45
2018-11-01T06:36:39.082Z,7.38
2018-11-01T06:39:08.646Z,7.37
2018-11-01T06:41:37.162Z,7.41
2018-11-01T06:44:06.015Z,7.36
2018-11-01T06:46:34.522Z,7.64
2018-11-01T06:49:03.027Z,7.42
2018-11-01T06:51:31.518Z,7.42
2018-11-01T06:54:00.081Z,7.45
2018-11-01T06:56:28.697Z,7.41
2018-11-01T06:58:59.028Z,7.41
2018-11-01T07:01:27.558Z,7.52
2018-11-01T07:03:56.550Z,7.54
2018-11-01T07:06:25.036Z,7.58
2018-11-01T07:08:53.546Z,7.70
2018-11-01T07:11:22.054Z,7.67
2018-11-01T07:13:50.563Z,7.68
2018-11-01T07:16:19.067Z,7.78
2018-11-01T07:18:47.562Z,7.77
2018-11-01T07:21:16.066Z,7.83
2018-11-01T07:23:44.563Z,7.84
2018-11-01T07:26:13.269Z,7.86
2018-11-01T07:28:41.578Z,7.91
2018-11-01T07:31:10.079Z,7.96
2018-11-01T07:33:38.574Z,8.08
2018-11-01T07:36:07.129Z,8.09
2018-11-01T07:38:35.667Z,8.05
2018-11-01T07:41:04.339Z,8.31
2018-11-01T07:43:32.963Z,8.31
2018-11-01T07:46:01.461Z,8.33
2018-11-01T07:48:29.982Z,8.45
2018-11-01T07:50:58.450Z,8.63
2018-11-01T07:53:27.288Z,8.55
2018-11-01T07:55:55.789Z,8.61
2018-11-01T07:58:24.331Z,8.65
2018-11-01T08:00:52.802Z,8.75
2018-11-01T08:03:21.268Z,8.70
2018-11-01T08:05:49.823Z,8.73
2018-11-01T08:08:18.230Z,8.75
2018-11-01T08:10:46.710Z,8.92
2018-11-01T08:13:15.191Z,8.83
2018-11-01T08:15:43.686Z,8.81
2018-11-01T08:18:12.194Z,8.70
2018-11-01T08:20:40.750Z,8.82
2018-11-01T08:23:09.227Z,8.90
2018-11-01T08:25:37.748Z,8.91
2018-11-01T08:28:06.413Z,8.88
2018-11-01T08:30:34.940Z,9.01
2018-11-01T08:33:03.929Z,8.99
2018-11-01T08:35:32.446Z,9.02
2018-11-01T08:38:00.919Z,9.05
2018-11-01T08:40:47.706Z,9.10
2018-11-01T08:43:16.218Z,9.41
2018-11-01T08:45:44.819Z,9.20
2018-11-01T08:48:13.307Z,9.16
2018-11-01T08:50:41.800Z,9.21
2018-11-01T08:53:10.300Z,9.16
2018-11-01T08:55:38.838Z,9.21
2018-11-01T08:58:07.363Z,9.21
2018-11-01T09:00:35.857Z,9.47
2018-11-01T09:03:04.421Z,9.31
2018-11-01T09:05:32.919Z,9.24
2018-11-01T09:08:01.453Z,9.26
2018-11-01T09:10:29.940Z,9.38
2018-11-01T09:12:58.421Z,9.39
2018-11-01T09:15:26.950Z,9.44
2018-11-01T09:17:55.442Z,9.51
2018-11-01T09:20:23.940Z,9.63
2018-11-01T09:22:52.450Z,9.72
2018-11-01T09:25:20.930Z,9.70
2018-11-01T09:27:51.241Z,9.84
2018-11-01T09:30:19.734Z,9.78
2018-11-01T09:32:48.264Z,9.84
2018-11-01T09:35:16.842Z,10.09
2018-11-01T09:37:45.323Z,10.10
2018-11-01T09:40:15.129Z,9.86
2018-11-01T09:42:44.197Z,9.98
2018-11-01T09:45:13.206Z,10.05
2018-11-01T09:47:42.470Z,10.24
2018-11-01T09:50:11.505Z,10.10
2018-11-01T09:52:40.591Z,10.05
2018-11-01T09:55:09.183Z,10.33
2018-11-01T09:57:37.794Z,10.21
2018-11-01T10:00:08.849Z,10.26
2018-11-01T10:02:37.335Z,10.23
2018-11-01T10:05:07.464Z,10.70
2018-11-01T10:07:36.072Z,10.92
2018-11-01T10:10:05.374Z,11.21
2018-11-01T10:12:33.875Z,11.53
2018-11-01T10:15:02.463Z,11.97
2018-11-01T10:17:31.412Z,12.42
2018-11-01T10:19:59.531Z,12.78
2018-11-01T10:22:28.110Z,13.09
2018-11-01T10:24:56.531Z,13.21
2018-11-01T10:27:25.093Z,13.08
2018-11-01T10:29:53.586Z,13.43
2018-11-01T10:32:22.084Z,13.78
2018-11-01T10:34:50.580Z,14.30
2018-11-01T10:37:19.073Z,14.69
2018-11-01T10:39:47.571Z,14.56
2018-11-01T10:42:16.069Z,14.89
2018-11-01T10:44:44.555Z,14.89
2018-11-01T10:47:13.070Z,15.21
2018-11-01T10:49:41.598Z,15.51
2018-11-01T10:52:10.118Z,15.89
2018-11-01T10:54:38.971Z,15.69
2018-11-01T10:57:07.511Z,15.81
2018-11-01T10:59:36.022Z,15.99
2018-11-01T11:02:10.428Z,15.86
2018-11-01T11:04:38.999Z,16.18
2018-11-01T11:07:07.507Z,16.52
2018-11-01T11:09:36.019Z,16.55
2018-11-01T11:12:04.871Z,16.40
2018-11-01T11:14:33.405Z,16.71
2018-11-01T11:17:01.986Z,16.64
2018-11-01T11:19:30.479Z,16.86
2018-11-01T11:21:59.010Z,17.00
2018-11-01T11:24:27.491Z,16.91
2018-11-01T11:26:56.015Z,17.11
2018-11-01T11:29:24.546Z,17.21
2018-11-01T11:31:53.040Z,17.35
2018-11-01T11:34:21.547Z,17.29
2018-11-01T11:36:50.043Z,17.32
2018-11-01T11:39:18.698Z,17.48
2018-11-01T11:41:47.066Z,17.48
2018-11-01T11:44:15.568Z,17.24
2018-11-01T11:46:44.362Z,17.46
2018-11-01T11:49:12.942Z,17.20
2018-11-01T11:51:41.420Z,17.31
2018-11-01T11:54:09.909Z,17.52
2018-11-01T11:56:38.415Z,17.48
2018-11-01T11:59:07.342Z,17.27
2018-11-01T12:01:35.844Z,17.22
2018-11-01T12:04:04.376Z,17.19
2018-11-01T12:06:32.882Z,17.13
2018-11-01T12:09:01.384Z,17.28
2018-11-01T12:11:30.293Z,17.14
2018-11-01T12:13:59.634Z,17.19
2018-11-01T12:16:28.103Z,17.12
2018-11-01T12:18:59.390Z,17.17
2018-11-01T12:21:27.890Z,17.13
2018-11-01T12:26:48.815Z,16.84
2018-11-01T12:29:17.330Z,16.87
2018-11-01T12:31:45.823Z,17.09
2018-11-01T12:34:14.658Z,17.06
2018-11-01T12:36:43.287Z,17.00
2018-11-01T12:39:11.798Z,16.93
2018-11-01T12:41:40.424Z,16.90
2018-11-01T12:44:08.863Z,16.75
2018-11-01T12:46:37.391Z,16.72
2018-11-01T12:49:06.582Z,16.76
2018-11-01T12:51:35.111Z,16.78
2018-11-01T12:54:03.661Z,16.79
2018-11-01T12:56:32.262Z,16.77
2018-11-01T12:59:00.746Z,16.67
2018-11-01T13:01:29.315Z,16.67
2018-11-01T13:04:00.982Z,16.89
2018-11-01T13:06:29.470Z,16.90
2018-11-01T13:08:58.722Z,16.90
2018-11-01T13:11:27.227Z,17.05
2018-11-01T13:13:57.015Z,17.08
2018-11-01T13:16:25.516Z,16.94
2018-11-01T13:18:54.345Z,16.97
2018-11-01T13:21:22.843Z,17.00
2018-11-01T13:23:51.332Z,17.02
2018-11-01T13:26:19.879Z,16.98
2018-11-01T13:28:48.380Z,15.75
2018-11-01T13:31:17.547Z,16.95
2018-11-01T13:33:46.126Z,17.00
2018-11-01T13:36:14.655Z,16.90
2018-11-01T13:38:43.165Z,17.00
2018-11-01T13:44:04.213Z,16.98
2018-11-01T13:46:33.080Z,17.02
2018-11-01T13:49:01.870Z,17.03
2018-11-01T13:51:30.840Z,16.92
2018-11-01T13:53:59.861Z,17.07
2018-11-01T13:56:28.444Z,16.96
2018-11-01T13:58:57.370Z,17.13
2018-11-01T14:01:26.508Z,17.11
2018-11-01T14:03:55.246Z,17.17
2018-11-01T14:06:23.871Z,17.13
2018-11-01T14:08:52.374Z,17.11
2018-11-01T14:11:20.883Z,16.98
2018-11-01T14:13:49.596Z,17.12
2018-11-01T14:16:18.058Z,17.06
2018-11-01T14:18:46.853Z,17.17
2018-11-01T14:21:15.438Z,17.24
2018-11-01T14:23:43.969Z,17.37
2018-11-01T14:26:13.347Z,17.26
2018-11-01T14:28:42.838Z,17.07
2018-11-01T14:31:11.458Z,17.07
2018-11-01T14:33:40.253Z,16.97
2018-11-01T14:36:09.226Z,16.96
2018-11-01T14:44:23.011Z,17.16
2018-11-01T14:46:51.511Z,17.13
2018-11-01T14:49:20.012Z,17.02
2018-11-01T14:51:49.298Z,17.14
2018-11-01T14:54:18.876Z,17.05
2018-11-01T14:56:47.773Z,17.06
2018-11-01T14:59:15.266Z,17.13
2018-11-01T15:01:43.415Z,17.04
2018-11-01T15:04:11.906Z,16.98
2018-11-01T15:06:40.469Z,16.93
2018-11-01T15:09:10.715Z,16.93
2018-11-01T15:11:39.221Z,16.88
2018-11-01T15:14:07.878Z,16.73
2018-11-01T15:16:36.736Z,16.78
2018-11-01T15:19:05.787Z,16.66
2018-11-01T15:21:34.264Z,16.50
2018-11-01T15:24:02.798Z,16.54
2018-11-01T15:26:31.326Z,16.70
2018-11-01T15:29:00.658Z,16.78
2018-11-01T15:31:29.167Z,16.60
2018-11-01T15:33:59.054Z,16.57
2018-11-01T15:36:27.519Z,16.53
2018-11-01T15:38:56.573Z,16.46
2018-11-01T15:41:25.071Z,16.43
2018-11-01T15:43:53.574Z,16.17
2018-11-01T15:46:22.156Z,16.18
2018-11-01T15:48:50.756Z,16.03
2018-11-01T15:51:19.326Z,15.94
2018-11-01T15:53:47.958Z,15.89
2018-11-01T15:56:16.525Z,15.93
2018-11-01T15:58:45.049Z,15.82
2018-11-01T16:01:13.635Z,15.75
2018-11-01T16:03:42.289Z,15.70
2018-11-01T16:06:10.926Z,15.73
2018-11-01T16:08:39.462Z,15.75
2018-11-01T16:11:08.195Z,15.73
2018-11-01T16:13:37.067Z,15.68
2018-11-01T16:16:05.701Z,15.55
2018-11-01T16:18:34.218Z,15.64
2018-11-01T16:21:03.131Z,15.46
2018-11-01T16:23:31.684Z,15.37
2018-11-01T16:26:00.342Z,15.31
2018-11-01T16:28:29.127Z,15.29
2018-11-01T16:30:57.687Z,15.26
2018-11-01T16:33:26.213Z,15.09
2018-11-01T16:35:54.744Z,15.07
2018-11-01T16:38:23.259Z,15.10
2018-11-01T16:40:51.818Z,15.14
2018-11-01T16:43:20.330Z,15.05
2018-11-01T16:45:48.835Z,15.01
2018-11-01T16:48:17.371Z,14.87
2018-11-01T16:50:45.897Z,14.96
2018-11-01T16:53:14.408Z,14.91
2018-11-01T16:55:42.949Z,14.92
2018-11-01T16:58:11.447Z,14.82
2018-11-01T17:00:40.089Z,14.80
2018-11-01T17:03:11.464Z,14.63
2018-11-01T17:05:40.054Z,14.62
2018-11-01T17:08:08.607Z,14.60
2018-11-01T17:10:37.126Z,14.66
2018-11-01T17:13:05.630Z,14.64
2018-11-01T17:15:34.494Z,14.60
2018-11-01T17:18:03.046Z,14.57
2018-11-01T17:20:31.665Z,14.51
2018-11-01T17:23:00.189Z,14.51
2018-11-01T17:25:28.738Z,14.52
2018-11-01T17:27:57.279Z,14.54
2018-11-01T17:30:25.789Z,14.46
2018-11-01T17:32:56.456Z,14.41
2018-11-01T17:35:25.111Z,14.40
2018-11-01T17:37:53.823Z,14.35
2018-11-01T17:40:23.050Z,14.32
2018-11-01T17:42:51.582Z,14.38
2018-11-01T17:45:20.167Z,14.32
2018-11-01T17:47:48.834Z,14.33
2018-11-01T17:50:17.806Z,14.32
2018-11-01T17:52:46.362Z,14.30
2018-11-01T17:55:14.921Z,14.28
2018-11-01T17:57:43.762Z,14.18
2018-11-01T18:00:14.359Z,13.94
2018-11-01T18:02:43.335Z,14.02
2018-11-01T18:05:12.480Z,14.06
2018-11-01T18:07:41.597Z,14.12
2018-11-01T18:10:11.530Z,14.08
2018-11-01T18:12:40.066Z,14.07
2018-11-01T18:15:09.023Z,13.98
2018-11-01T18:17:55.927Z,13.83
2018-11-01T18:20:24.454Z,13.76
2018-11-01T18:22:53.036Z,13.81
2018-11-01T18:25:21.609Z,13.90
2018-11-01T18:27:50.163Z,13.72
2018-11-01T18:30:18.689Z,13.77
2018-11-01T18:32:47.399Z,13.80
2018-11-01T18:35:15.814Z,13.87
2018-11-01T18:37:44.601Z,13.83
2018-11-01T18:40:15.205Z,13.89
2018-11-01T18:42:43.781Z,13.80
2018-11-01T18:45:13.571Z,13.84
2018-11-01T18:47:42.859Z,13.95
2018-11-01T18:50:12.716Z,13.86
2018-11-01T18:52:41.626Z,13.85
2018-11-01T18:55:11.427Z,13.80
2018-11-01T18:57:40.021Z,13.83
2018-11-01T19:00:11.165Z,13.83
2018-11-01T19:05:08.295Z,13.64
2018-11-01T19:07:36.840Z,13.64
2018-11-01T19:10:06.178Z,13.63
2018-11-01T19:12:34.703Z,13.63
2018-11-01T19:15:03.231Z,13.52
2018-11-01T19:17:31.765Z,13.50
2018-11-01T19:20:00.559Z,13.50
2018-11-01T19:22:29.095Z,13.50
2018-11-01T19:24:57.598Z,13.36
2018-11-01T19:27:26.397Z,13.42
2018-11-01T19:29:54.967Z,13.41
2018-11-01T19:32:23.548Z,13.37
2018-11-01T19:34:52.116Z,13.35
2018-11-01T19:37:20.626Z,13.38
2018-11-01T19:39:49.199Z,13.36
2018-11-01T19:42:17.671Z,13.30
2018-11-01T19:44:46.182Z,13.28
2018-11-01T19:47:14.687Z,13.30
2018-11-01T19:49:43.200Z,13.26
2018-11-01T19:52:11.703Z,13.13
2018-11-01T19:54:40.307Z,13.19
2018-11-01T19:57:08.766Z,13.09
2018-11-01T19:59:37.258Z,13.21
2018-11-01T20:02:06.324Z,13.10
2018-11-01T20:04:34.819Z,13.02
2018-11-01T20:07:03.485Z,12.93
2018-11-01T20:12:25.011Z,12.89
2018-11-01T20:14:53.852Z,12.87
2018-11-01T20:17:22.278Z,12.85
2018-11-01T20:19:50.808Z,12.90
2018-11-01T20:22:19.432Z,12.84
2018-11-01T20:24:47.953Z,12.83
2018-11-01T20:27:16.487Z,12.75
2018-11-01T20:29:45.013Z,12.80
2018-11-01T20:32:13.527Z,12.82
2018-11-01T20:34:42.013Z,12.81
2018-11-01T20:37:10.543Z,12.84
2018-11-01T20:39:39.054Z,12.80
2018-11-01T20:42:07.733Z,12.73
2018-11-01T20:44:36.255Z,12.74
2018-11-01T20:47:04.936Z,12.67
2018-11-01T20:49:33.452Z,12.46
2018-11-01T20:52:01.996Z,12.44
2018-11-01T20:54:30.780Z,12.50
2018-11-01T20:56:59.314Z,12.55
2018-11-01T20:59:27.813Z,12.60
2018-11-01T21:01:56.456Z,12.58
2018-11-01T21:04:24.970Z,12.50
2018-11-01T21:06:53.505Z,12.52
2018-11-01T21:09:22.002Z,12.56
2018-11-01T21:11:50.645Z,12.56
2018-11-01T21:14:19.059Z,12.55
2018-11-01T21:16:47.577Z,12.54
2018-11-01T21:19:16.136Z,12.49
2018-11-01T21:21:44.663Z,12.36
2018-11-01T21:24:13.166Z,12.37
2018-11-01T21:26:41.702Z,12.40
2018-11-01T21:29:10.253Z,12.31
2018-11-01T21:31:38.777Z,12.33
2018-11-01T21:34:07.294Z,12.37
2018-11-01T21:36:35.823Z,12.40
2018-11-01T21:39:06.646Z,12.41
2018-11-01T21:41:35.202Z,12.40
2018-11-01T21:44:03.794Z,12.34
2018-11-01T21:46:32.349Z,12.35
2018-11-01T21:49:00.995Z,12.32
2018-11-01T21:51:29.530Z,12.28
2018-11-01T21:54:00.660Z,12.27
2018-11-01T21:56:29.141Z,12.25
2018-11-01T21:58:58.678Z,12.23
2018-11-01T22:01:27.442Z,12.15
2018-11-01T22:03:57.452Z,12.16
2018-11-01T22:06:25.967Z,12.05
2018-11-01T22:08:54.617Z,12.06
2018-11-01T22:11:23.134Z,11.97
2018-11-01T22:13:51.652Z,11.94
2018-11-01T22:16:20.184Z,11.88
2018-11-01T22:18:48.724Z,11.86
2018-11-01T22:21:17.225Z,11.82
2018-11-01T22:23:45.754Z,11.72
2018-11-01T22:26:14.272Z,11.78
2018-11-01T22:28:42.882Z,11.80
2018-11-01T22:31:11.364Z,11.80
2018-11-01T22:33:39.850Z,11.69
2018-11-01T22:36:08.355Z,11.69
2018-11-01T22:38:36.930Z,11.65
2018-11-01T22:41:05.518Z,11.56
2018-11-01T22:43:34.030Z,11.52
2018-11-01T22:46:02.586Z,11.62
2018-11-01T22:48:31.131Z,11.58
2018-11-01T22:50:59.766Z,11.45
2018-11-01T22:53:28.282Z,11.44
2018-11-01T22:55:56.813Z,11.48
2018-11-01T22:58:25.310Z,11.51
2018-11-01T23:00:53.833Z,11.50
2018-11-01T23:03:22.371Z,11.50
2018-11-01T23:05:50.870Z,11.48
2018-11-01T23:08:19.382Z,11.47
2018-11-01T23:10:47.886Z,11.37
2018-11-01T23:13:16.391Z,11.24
2018-11-01T23:15:44.904Z,11.27
2018-11-01T23:18:13.431Z,11.27
2018-11-01T23:20:41.945Z,11.04
2018-11-01T23:23:10.441Z,10.99
2018-11-01T23:25:38.972Z,10.83
2018-11-01T23:28:07.507Z,10.95
2018-11-01T23:30:36.018Z,10.90
2018-11-01T23:33:04.763Z,10.86
2018-11-01T23:35:33.227Z,10.90
2018-11-01T23:38:06.798Z,10.79
2018-11-01T23:40:40.488Z,10.87
2018-11-01T23:43:14.434Z,10.82
2018-11-01T23:45:48.227Z,10.87
2018-11-01T23:48:15.854Z,10.88
2018-11-01T23:51:19.015Z,10.86
2018-11-01T23:53:49.475Z,10.86
2018-11-01T23:56:18.438Z,10.84
2018-11-01T23:58:47.214Z,10.81
